Silia — WDG2034 — position and weather

sailwx.info

Track history (hours):
 
Tides and Currents Weather Stations Pressure Air Temp Water Temp Dewpoint Dewpoint Depression Visibility Wind Speed Wind Dir Waves Ship Positions

Silia

Owner: greger pacific marine, napa, CA. More information available from US FCC via Universal Licensing System and Coast Guard Vessel Documentation Center.

Last reported at 2016-Nov-13 18:27 UTC. Time now 2016-Dec-05 10:37 UTC.
Position N 38°02' W 122°21'.
Warning: this ship's position is 21 days out of date.

Length 17 m; draft 3 m.

Type: Tug. MMSI: 367511460.

Date/timePositionNaut miles runAvg speedWind from/ knotsBaromVisibWave heightAir tempDewpointWater temp
2016-Nov-13 18:27N 38°02' W 122°21'9 9.5
2016-Nov-13 17:33N 37°55' W 122°27'  
2016-Nov-11 01:17N 37°52' W 122°30'5 6.5
2016-Nov-11 00:33N 37°49' W 122°25'7 7.5
2016-Nov-10 23:33N 37°47' W 122°16'1 1.2
2016-Nov-10 22:33N 37°48' W 122°17'11 5.4
2016-Nov-10 20:34N 37°52' W 122°30'0 0.1
2016-Nov-10 18:33N 37°52' W 122°30'0 0.0
2016-Nov-10 16:33N 37°52' W 122°30'0 0.0
2016-Nov-10 15:33N 37°52' W 122°30'0 0.0
2016-Nov-10 11:33N 37°52' W 122°30'0 0.0
2016-Nov-10 10:33N 37°52' W 122°30'0 0.0
2016-Nov-10 09:33N 37°52' W 122°30'0 0.0
2016-Nov-10 08:33N 37°52' W 122°30'0 0.0
2016-Nov-10 07:33N 37°52' W 122°30'0 0.0
2016-Nov-10 06:33N 37°52' W 122°30'0 0.0
2016-Nov-10 05:33N 37°52' W 122°30'0 0.0
2016-Nov-10 04:33N 37°52' W 122°30'0 0.0
2016-Nov-10 00:33N 37°52' W 122°30'0 0.0
2016-Nov-09 22:33N 37°52' W 122°30'0 0.0
2016-Nov-09 20:37N 37°52' W 122°30'0 0.0
2016-Nov-09 19:52N 37°52' W 122°30'0 0.0
2016-Nov-09 19:06N 37°52' W 122°30'0 0.0
2016-Nov-09 18:33N 37°52' W 122°30'0 0.0
2016-Nov-09 17:33N 37°52' W 122°30'0 0.0
2016-Nov-09 15:33N 37°52' W 122°30'0 0.0
2016-Nov-09 13:33N 37°52' W 122°30'0 0.0
2016-Nov-09 08:33N 37°52' W 122°30'0 0.0
2016-Nov-09 07:33N 37°52' W 122°30'0 0.0
2016-Nov-09 05:33N 37°52' W 122°30'0 0.0
2016-Nov-09 04:33N 37°52' W 122°30'0 0.0
2016-Nov-09 02:33N 37°52' W 122°30'0 0.0
2016-Nov-08 23:33N 37°52' W 122°30'0 0.0
2016-Nov-08 22:33N 37°52' W 122°30'0 0.0
2016-Nov-08 21:33N 37°52' W 122°30'0 0.0
2016-Nov-08 20:33N 37°52' W 122°30'0 0.0
2016-Nov-08 19:33N 37°52' W 122°30'0 0.0
2016-Nov-08 18:33N 37°52' W 122°30'0 0.0
2016-Nov-08 17:33N 37°52' W 122°30'0 0.0
2016-Nov-08 15:33N 37°52' W 122°30'0 0.0
2016-Nov-08 09:33N 37°52' W 122°30'0 0.0
2016-Nov-08 06:33N 37°52' W 122°30'0 0.0
2016-Nov-08 04:33N 37°52' W 122°30'0 0.1
2016-Nov-08 00:33N 37°52' W 122°29'3 2.7
2016-Nov-07 23:33N 37°51' W 122°26'0 0.1
2016-Nov-07 19:33N 37°50' W 122°26'4 1.7
2016-Nov-07 17:32N 37°52' W 122°30'0 0.1
2016-Nov-07 16:33N 37°52' W 122°30'0 0.0
2016-Nov-07 15:33N 37°52' W 122°30'0 0.2
2016-Nov-07 14:33N 37°52' W 122°30'0 0.0
2016-Nov-07 13:33N 37°52' W 122°30'0 0.0
2016-Nov-07 09:33N 37°52' W 122°30'0 0.0
2016-Nov-07 08:33N 37°52' W 122°30'0 0.0
2016-Nov-07 07:33N 37°52' W 122°30'0 0.0
2016-Nov-07 06:33N 37°52' W 122°30'0 0.0
2016-Nov-07 05:33N 37°52' W 122°30'0 0.0
2016-Nov-07 02:33N 37°52' W 122°30'0 0.0
2016-Nov-07 01:33N 37°52' W 122°30'0 0.0
2016-Nov-06 22:33N 37°52' W 122°30'0 0.0
2016-Nov-06 20:33N 37°52' W 122°30'0 0.0
2016-Nov-06 19:33N 37°52' W 122°30'0 0.0
2016-Nov-06 17:33N 37°52' W 122°30'0 0.0
2016-Nov-06 15:33N 37°52' W 122°30'0 0.0
2016-Nov-06 13:33N 37°52' W 122°30'0 0.0
2016-Nov-06 12:33N 37°52' W 122°30'0 0.0
2016-Nov-06 11:33N 37°52' W 122°30'0 0.0
2016-Nov-06 10:33N 37°52' W 122°30'0 0.0
2016-Nov-06 08:33N 37°52' W 122°30'0 0.0
2016-Nov-06 07:33N 37°52' W 122°30'0 0.0
2016-Nov-05 23:33N 37°52' W 122°30'0 0.0
2016-Nov-05 21:33N 37°52' W 122°30'0 0.0
2016-Nov-05 20:43N 37°52' W 122°30'0 0.0
2016-Nov-05 20:33N 37°52' W 122°30'0 0.0
2016-Nov-05 16:33N 37°52' W 122°30'0 0.0
2016-Nov-05 12:33N 37°52' W 122°30'0 0.0
2016-Nov-05 11:33N 37°52' W 122°30'0 0.0
2016-Nov-05 10:33N 37°52' W 122°30'0 0.0
2016-Nov-05 09:33N 37°52' W 122°30'0 0.0
2016-Nov-05 08:33N 37°52' W 122°30'0 0.0
2016-Nov-05 07:33N 37°52' W 122°30'0 0.0
2016-Nov-05 04:33N 37°52' W 122°30'0 0.0
2016-Nov-05 02:33N 37°52' W 122°30'0 0.0
2016-Nov-05 01:33N 37°52' W 122°30'4 2.1
2016-Nov-04 23:33N 37°50' W 122°25'4 4.2
2016-Nov-04 22:33N 37°52' W 122°30'0 0.0
2016-Nov-04 21:33N 37°52' W 122°30'0 0.1
2016-Nov-04 20:33N 37°52' W 122°30'11 5.3
2016-Nov-04 18:33N 37°48' W 122°18'4 2.2
2016-Nov-04 16:33N 37°49' W 122°23'6 3.1
2016-Nov-04 14:33N 37°52' W 122°30'0 0.0
2016-Nov-04 12:33N 37°52' W 122°30'0 0.0
2016-Nov-04 08:33N 37°52' W 122°30'0 0.0
2016-Nov-04 07:33N 37°52' W 122°30'0 0.0
2016-Nov-04 06:33N 37°52' W 122°30'  
Track history (hours):
 
Tides and Currents Weather Stations Pressure Air Temp Water Temp Dewpoint Dewpoint Depression Visibility Wind Speed Wind Dir Waves Ship Positions

Silia

Owner: greger pacific marine, napa, CA. More information available from US FCC via Universal Licensing System and Coast Guard Vessel Documentation Center.

Last reported at 2016-Nov-13 18:27 UTC. Time now 2016-Dec-05 10:37 UTC.
Position N 38°02' W 122°21'.
Warning: this ship's position is 21 days out of date.

Length 17 m; draft 3 m.

Type: Tug. MMSI: 367511460.

Date/timePositionNaut miles runAvg speedWind from/ knotsBaromVisibWave heightAir tempDewpointWater temp
2016-Nov-13 18:27N 38°02' W 122°21'9 9.5
2016-Nov-13 17:33N 37°55' W 122°27'  
2016-Nov-11 01:17N 37°52' W 122°30'5 6.5
2016-Nov-11 00:33N 37°49' W 122°25'7 7.5
2016-Nov-10 23:33N 37°47' W 122°16'1 1.2
2016-Nov-10 22:33N 37°48' W 122°17'11 5.4
2016-Nov-10 20:34N 37°52' W 122°30'0 0.1
2016-Nov-10 18:33N 37°52' W 122°30'0 0.0
2016-Nov-10 16:33N 37°52' W 122°30'0 0.0
2016-Nov-10 15:33N 37°52' W 122°30'0 0.0
2016-Nov-10 11:33N 37°52' W 122°30'0 0.0
2016-Nov-10 10:33N 37°52' W 122°30'0 0.0
2016-Nov-10 09:33N 37°52' W 122°30'0 0.0
2016-Nov-10 08:33N 37°52' W 122°30'0 0.0
2016-Nov-10 07:33N 37°52' W 122°30'0 0.0
2016-Nov-10 06:33N 37°52' W 122°30'0 0.0
2016-Nov-10 05:33N 37°52' W 122°30'0 0.0
2016-Nov-10 04:33N 37°52' W 122°30'0 0.0
2016-Nov-10 00:33N 37°52' W 122°30'0 0.0
2016-Nov-09 22:33N 37°52' W 122°30'0 0.0
2016-Nov-09 20:37N 37°52' W 122°30'0 0.0
2016-Nov-09 19:52N 37°52' W 122°30'0 0.0
2016-Nov-09 19:06N 37°52' W 122°30'0 0.0
2016-Nov-09 18:33N 37°52' W 122°30'0 0.0
2016-Nov-09 17:33N 37°52' W 122°30'0 0.0
2016-Nov-09 15:33N 37°52' W 122°30'0 0.0
2016-Nov-09 13:33N 37°52' W 122°30'0 0.0
2016-Nov-09 08:33N 37°52' W 122°30'0 0.0
2016-Nov-09 07:33N 37°52' W 122°30'0 0.0
2016-Nov-09 05:33N 37°52' W 122°30'0 0.0
2016-Nov-09 04:33N 37°52' W 122°30'0 0.0
2016-Nov-09 02:33N 37°52' W 122°30'0 0.0
2016-Nov-08 23:33N 37°52' W 122°30'0 0.0
2016-Nov-08 22:33N 37°52' W 122°30'0 0.0
2016-Nov-08 21:33N 37°52' W 122°30'0 0.0
2016-Nov-08 20:33N 37°52' W 122°30'0 0.0
2016-Nov-08 19:33N 37°52' W 122°30'0 0.0
2016-Nov-08 18:33N 37°52' W 122°30'0 0.0
2016-Nov-08 17:33N 37°52' W 122°30'0 0.0
2016-Nov-08 15:33N 37°52' W 122°30'0 0.0
2016-Nov-08 09:33N 37°52' W 122°30'0 0.0
2016-Nov-08 06:33N 37°52' W 122°30'0 0.0
2016-Nov-08 04:33N 37°52' W 122°30'0 0.1
2016-Nov-08 00:33N 37°52' W 122°29'3 2.7
2016-Nov-07 23:33N 37°51' W 122°26'0 0.1
2016-Nov-07 19:33N 37°50' W 122°26'4 1.7
2016-Nov-07 17:32N 37°52' W 122°30'0 0.1
2016-Nov-07 16:33N 37°52' W 122°30'0 0.0
2016-Nov-07 15:33N 37°52' W 122°30'0 0.2
2016-Nov-07 14:33N 37°52' W 122°30'0 0.0
2016-Nov-07 13:33N 37°52' W 122°30'0 0.0
2016-Nov-07 09:33N 37°52' W 122°30'0 0.0
2016-Nov-07 08:33N 37°52' W 122°30'0 0.0
2016-Nov-07 07:33N 37°52' W 122°30'0 0.0
2016-Nov-07 06:33N 37°52' W 122°30'0 0.0
2016-Nov-07 05:33N 37°52' W 122°30'0 0.0
2016-Nov-07 02:33N 37°52' W 122°30'0 0.0
2016-Nov-07 01:33N 37°52' W 122°30'0 0.0
2016-Nov-06 22:33N 37°52' W 122°30'0 0.0
2016-Nov-06 20:33N 37°52' W 122°30'0 0.0
2016-Nov-06 19:33N 37°52' W 122°30'0 0.0
2016-Nov-06 17:33N 37°52' W 122°30'0 0.0
2016-Nov-06 15:33N 37°52' W 122°30'0 0.0
2016-Nov-06 13:33N 37°52' W 122°30'0 0.0
2016-Nov-06 12:33N 37°52' W 122°30'0 0.0
2016-Nov-06 11:33N 37°52' W 122°30'0 0.0
2016-Nov-06 10:33N 37°52' W 122°30'0 0.0
2016-Nov-06 08:33N 37°52' W 122°30'0 0.0
2016-Nov-06 07:33N 37°52' W 122°30'0 0.0
2016-Nov-05 23:33N 37°52' W 122°30'0 0.0
2016-Nov-05 21:33N 37°52' W 122°30'0 0.0
2016-Nov-05 20:43N 37°52' W 122°30'0 0.0
2016-Nov-05 20:33N 37°52' W 122°30'0 0.0
2016-Nov-05 16:33N 37°52' W 122°30'0 0.0
2016-Nov-05 12:33N 37°52' W 122°30'0 0.0
2016-Nov-05 11:33N 37°52' W 122°30'0 0.0
2016-Nov-05 10:33N 37°52' W 122°30'0 0.0
2016-Nov-05 09:33N 37°52' W 122°30'0 0.0
2016-Nov-05 08:33N 37°52' W 122°30'0 0.0
2016-Nov-05 07:33N 37°52' W 122°30'0 0.0
2016-Nov-05 04:33N 37°52' W 122°30'0 0.0
2016-Nov-05 02:33N 37°52' W 122°30'0 0.0
2016-Nov-05 01:33N 37°52' W 122°30'4 2.1
2016-Nov-04 23:33N 37°50' W 122°25'4 4.2
2016-Nov-04 22:33N 37°52' W 122°30'0 0.0
2016-Nov-04 21:33N 37°52' W 122°30'0 0.1
2016-Nov-04 20:33N 37°52' W 122°30'11 5.3
2016-Nov-04 18:33N 37°48' W 122°18'4 2.2
2016-Nov-04 16:33N 37°49' W 122°23'6 3.1
2016-Nov-04 14:33N 37°52' W 122°30'0 0.0
2016-Nov-04 12:33N 37°52' W 122°30'0 0.0
2016-Nov-04 08:33N 37°52' W 122°30'0 0.0
2016-Nov-04 07:33N 37°52' W 122°30'0 0.0
2016-Nov-04 06:33N 37°52' W 122°30'  

Dump ship's entire track history